Pagrindinis puslapis
METAR-TAF:

METAR-TAF

Oro uostai :

Fasa, Iranas

platuma: 28-58N, ilguma: 053-41E, Aukštis: 1383 m

Dabartinis oras

Ataskaita buvo paskelbta 56 minutes, ne 10:00 UTC
Vėjas 8 kt iš Šiaurės Vakarų
Temperatūra 12°C
Drėgmė 76%
Slėgis 1022 hPa
Matomumas: 8000 m
Mažai debesys ne aukštis 500 ft
Išsisklaidę debesys ne aukštis 3000 ft, Liūtiniai kamuoliniai debesys.
Apsiniaukę ne aukštis 9000 ft

METAR: OISF 071000Z 31008KT 8000 FEW005 SCT030CB OVC090 12/08 Q1022 A3019

Laikas: 14:26 (10:56 UTC)


TAF: trūkstamas

Orai ataskaitas ir orų prognozės (METAR, TAF).

turimą stotys yra geltonos ir raudonos taškus žemėlapyje.

Perkelti pele per norėdami pamatyti stoties vardą.

Tada spustelėkite, norėdami matyti oro stebėjimo ir prognozės.

Norėdami pakeisti žemėlapį: spustelėkite ant žalios mygtukų su juodo kryžiaus žemyn,; žalią mygtuką su brūkšneliu, jei norite nutolinti; arba žalių rodyklių gretimoms žemėlapius.


METAR-TAF: